Weather at Bad Wörishofen Glider Airfield

Public forecast

Using degrees Celsius for public forecast. Weather courtesy of forecast.io.

Closest aviation weather report (METAR) to Bad Wörishofen Glider Airfield

Report is more than 6 hours old.

Closest report is Landsberg Lech Air Base, 12.5 nm (23.2 km) ENE. Retrieved 2018/07/10 05:20 UTC (2 years ago):

ETSA 100520Z AUTO 22005KT 9999 // ////// 15/11 Q1017 ///

Closest aviation forecast (TAF) to Bad Wörishofen Glider Airfield

Forecast is more than 12 hours old.

Closest forecast is Landsberg Lech Air Base, 12.5 nm (23.2 km) ENE. Retrieved 2017/12/22 06:36 UTC (3 years ago):

TAF ETSA 220515Z 2206/2218 23010KT 7000 NSW SCT006 BKN010 TEMPO 2206/2218 24010KT 2500 -DZ SCT003 BKN005 PROB30 2206/2209 22008KT 1200 DZ BKN002 BKN005 RMK WAS ES IST UND WAS ES WAR WIRD UNS ERST BEIM ABSCHIED KLAR BY ETGL